Terminal Aerodrome Forecast
Issued by NWS

Home | Current Version | Previous Version | Text Only | Print | Product List | Glossary On
Versions: 1 2 3 4 5 6 7 8 9 10 11
155
FTUS46 KSEW 282328
TAFCLM
TAF
KCLM 282328Z 2900/2924 32009G15KT P6SM SCT040 SCT200
     FM290700 26007KT P6SM SCT200
     FM291000 08004KT P6SM BKN200
     FM292300 09003KT P6SM BKN080 OVC120=

USA.gov is the U.S. government's official web portal to all federal, state and local government web resources and services.